Time;durP1;ratioP1;P1;durP2;ratioP2;P2;SDS_P1;SDS_P2;PMS_P1;PMS_P2;Temp;Humidity;BMP_temperature;BMP_pressure;BME280_temperature;BME280_humidity;BME280_pressure;Samples;Min_cycle;Max_cycle;Signal;HPM_P1;HPM_P2
2022/11/09 00:00:48;;;;;;;11.20;7.85;;;8.50;99.90;;;;;;5097088;28;20204;-78
2022/11/09 00:03:14;;;;;;;11.95;8.15;;;8.50;99.90;;;;;;5097216;28;20172;-78
2022/11/09 00:05:39;;;;;;;9.15;8.23;;;8.60;99.90;;;;;;5097034;28;20203;-78
2022/11/09 00:08:06;;;;;;;10.20;7.97;;;8.60;99.90;;;;;;5115442;28;20168;-78
2022/11/09 00:10:32;;;;;;;11.45;7.95;;;8.50;99.90;;;;;;5097000;28;20224;-78
2022/11/09 00:12:58;;;;;;;10.77;8.02;;;8.50;99.90;;;;;;5115097;28;20267;-78
2022/11/09 00:15:24;;;;;;;11.27;8.77;;;8.50;99.90;;;;;;5097167;28;20638;-78
2022/11/09 00:17:49;;;;;;;11.57;8.63;;;8.40;99.90;;;;;;5115088;28;20180;-78
2022/11/09 00:20:15;;;;;;;9.77;8.77;;;8.40;99.90;;;;;;5097160;28;20245;-78
2022/11/09 00:22:40;;;;;;;9.05;8.18;;;8.40;99.90;;;;;;5096803;28;20262;-78
2022/11/09 00:25:06;;;;;;;9.43;8.43;;;8.30;99.90;;;;;;5096694;28;20207;-78
2022/11/09 00:27:32;;;;;;;10.02;8.48;;;8.20;99.90;;;;;;5095777;28;20179;-78
2022/11/09 00:29:57;;;;;;;9.38;8.35;;;8.10;99.90;;;;;;5097519;28;20172;-78
2022/11/09 00:32:23;;;;;;;8.95;7.97;;;8.00;99.90;;;;;;5096563;28;20175;-78
2022/11/09 00:34:48;;;;;;;10.48;8.77;;;7.90;99.90;;;;;;5096592;28;20188;-78
2022/11/09 00:37:14;;;;;;;9.25;8.35;;;7.90;99.90;;;;;;5115026;28;20173;-78
2022/11/09 00:39:39;;;;;;;10.20;8.48;;;7.80;99.90;;;;;;5097313;28;20198;-78
2022/11/09 00:42:06;;;;;;;11.18;8.45;;;7.80;99.90;;;;;;5096726;28;20250;-78
2022/11/09 00:44:31;;;;;;;9.25;8.15;;;7.70;99.90;;;;;;5096167;28;20179;-78
2022/11/09 00:46:57;;;;;;;9.77;8.32;;;7.80;99.90;;;;;;5097264;28;20172;-78
2022/11/09 00:50:21;;;;;;;10.55;9.45;;;7.80;99.90;;;;;;5096399;28;20221;-78
2022/11/09 00:52:47;;;;;;;8.55;7.65;;;7.80;99.90;;;;;;5097203;28;20176;-78
2022/11/09 00:55:13;;;;;;;10.40;8.10;;;7.70;99.90;;;;;;5114553;28;20202;-78
2022/11/09 00:57:38;;;;;;;8.40;7.50;;;7.70;99.90;;;;;;5096976;28;20226;-78
2022/11/09 01:00:04;;;;;;;7.75;7.00;;;7.80;99.90;;;;;;5114213;28;20638;-78
2022/11/09 01:02:30;;;;;;;8.40;6.80;;;7.80;99.90;;;;;;5096123;28;20244;-78
2022/11/09 01:04:56;;;;;;;8.52;7.30;;;7.70;99.90;;;;;;5096895;28;20641;-78
2022/11/09 01:07:22;;;;;;;7.93;7.13;;;7.70;99.90;;;;;;5096704;28;20195;-78
2022/11/09 01:09:47;;;;;;;10.48;7.80;;;7.70;99.90;;;;;;5096930;28;20619;-78
2022/11/09 01:12:13;;;;;;;9.27;7.18;;;7.60;99.90;;;;;;5096104;28;20718;-78
2022/11/09 01:14:38;;;;;;;9.35;6.97;;;7.60;99.90;;;;;;5114432;28;20203;-78
2022/11/09 01:17:04;;;;;;;7.20;6.50;;;7.60;99.90;;;;;;5095923;28;20176;-78
2022/11/09 01:19:29;;;;;;;7.85;7.07;;;7.60;99.90;;;;;;5096357;28;20218;-78
2022/11/09 01:21:55;;;;;;;7.65;6.78;;;7.60;99.90;;;;;;5095859;28;20196;-78
2022/11/09 01:24:20;;;;;;;8.50;7.68;;;7.70;99.90;;;;;;5095792;28;20176;-78
2022/11/09 01:26:46;;;;;;;8.30;7.50;;;7.70;99.90;;;;;;5096115;28;20181;-78
2022/11/09 01:29:12;;;;;;;12.10;7.68;;;7.70;99.90;;;;;;5096957;28;20172;-78
2022/11/09 01:31:37;;;;;;;10.88;7.32;;;7.80;99.90;;;;;;5095788;28;20187;-78
2022/11/09 01:34:03;;;;;;;9.23;7.80;;;7.80;99.90;;;;;;5096789;28;20203;-78
2022/11/09 01:36:28;;;;;;;9.10;7.22;;;7.70;99.90;;;;;;5113833;28;20289;-78
2022/11/09 01:38:54;;;;;;;8.73;7.82;;;7.80;99.90;;;;;;5098811;28;20220;-78
2022/11/09 01:41:23;;;;;;;8.77;7.93;;;7.80;99.90;;;;;;5100645;28;20207;-78
2022/11/09 01:44:13;;;;;;;7.95;7.13;;;7.80;99.90;;;;;;5100993;28;20202;-78
2022/11/09 01:46:48;;;;;;;8.88;7.68;;;7.90;99.90;;;;;;5100553;28;20226;-78
2022/11/09 01:49:36;;;;;;;9.68;7.85;;;7.90;99.90;;;;;;5099742;28;20178;-78
2022/11/09 01:52:07;;;;;;;9.30;8.30;;;7.90;99.90;;;;;;5099783;28;20184;-78
2022/11/09 01:54:44;;;;;;;10.30;7.70;;;7.90;99.90;;;;;;5099695;28;20649;-78
2022/11/09 01:57:17;;;;;;;9.07;8.18;;;7.90;99.90;;;;;;5099994;28;20180;-78
2022/11/09 01:59:49;;;;;;;9.73;8.25;;;7.90;99.90;;;;;;5099621;28;20179;-78
2022/11/09 02:02:15;;;;;;;12.25;8.82;;;8.00;99.90;;;;;;5100032;28;20210;-78
2022/11/09 02:04:50;;;;;;;9.30;8.00;;;8.00;99.90;;;;;;5099369;28;20196;-78
2022/11/09 02:07:17;;;;;;;8.20;7.40;;;8.10;99.90;;;;;;5099352;28;20279;-78
2022/11/09 02:09:45;;;;;;;8.80;7.90;;;8.10;99.90;;;;;;5099889;28;20167;-78
2022/11/09 02:12:11;;;;;;;11.55;8.40;;;8.20;99.90;;;;;;5117772;28;20188;-78
2022/11/09 02:14:37;;;;;;;15.57;8.63;;;8.20;99.90;;;;;;5099584;28;20207;-78
2022/11/09 02:17:05;;;;;;;11.40;8.35;;;8.10;99.90;;;;;;5100065;28;20248;-78
2022/11/09 02:19:30;;;;;;;10.88;7.90;;;8.20;99.90;;;;;;5099545;28;20212;-78
2022/11/09 02:21:56;;;;;;;9.50;8.50;;;8.20;99.90;;;;;;5099937;28;20250;-78
2022/11/09 02:24:21;;;;;;;11.25;8.13;;;8.20;99.90;;;;;;5099048;28;20168;-78
2022/11/09 02:26:49;;;;;;;11.35;8.65;;;8.20;99.90;;;;;;5101321;28;20180;-78
2022/11/09 02:29:36;;;;;;;10.55;9.00;;;8.20;99.90;;;;;;5100757;28;20654;-78
2022/11/09 02:32:07;;;;;;;10.85;8.15;;;8.10;99.90;;;;;;5100676;28;20176;-78
2022/11/09 02:34:33;;;;;;;9.35;8.38;;;8.20;99.90;;;;;;5101100;28;20172;-78
2022/11/09 02:36:58;;;;;;;11.00;9.30;;;8.20;99.90;;;;;;5100450;28;20176;-78
2022/11/09 02:39:25;;;;;;;9.02;8.13;;;8.20;99.90;;;;;;5099750;28;20180;-78
2022/11/09 02:42:00;;;;;;;9.00;7.95;;;8.10;99.90;;;;;;5100020;28;20256;-78
2022/11/09 02:44:28;;;;;;;8.90;7.78;;;8.20;99.90;;;;;;5099465;28;20172;-78
2022/11/09 02:46:53;;;;;;;10.30;7.72;;;8.20;99.90;;;;;;5099377;28;20172;-78
2022/11/09 02:49:19;;;;;;;9.35;7.95;;;8.20;99.90;;;;;;5098754;28;20183;-78
2022/11/09 02:51:45;;;;;;;9.48;8.48;;;8.30;99.90;;;;;;5098335;28;20275;-78
2022/11/09 02:54:10;;;;;;;11.65;8.45;;;8.30;99.90;;;;;;5117567;28;20623;-78
2022/11/09 02:56:39;;;;;;;9.02;7.90;;;8.30;99.90;;;;;;5099466;28;20207;-78
2022/11/09 02:59:04;;;;;;;9.88;8.00;;;8.30;99.90;;;;;;5099538;28;20217;-78
2022/11/09 03:01:30;;;;;;;10.15;7.90;;;8.40;99.90;;;;;;5099283;28;20203;-78
2022/11/09 03:03:56;;;;;;;8.75;7.85;;;8.30;99.90;;;;;;5099848;28;20533;-78
2022/11/09 03:06:33;;;;;;;12.00;8.65;;;8.30;99.90;;;;;;5099413;28;20269;-78
2022/11/09 03:09:11;;;;;;;10.52;9.38;;;8.30;99.90;;;;;;5099009;28;20178;-78
2022/11/09 03:11:39;;;;;;;11.52;8.90;;;8.30;99.90;;;;;;5117304;28;20187;-78
2022/11/09 03:14:04;;;;;;;8.85;7.97;;;8.30;99.90;;;;;;5099881;28;20176;-78
2022/11/09 03:16:30;;;;;;;13.95;8.82;;;8.30;99.90;;;;;;5117172;28;20195;-78
2022/11/09 03:18:56;;;;;;;10.27;8.52;;;8.20;99.90;;;;;;5098616;28;20240;-78
2022/11/09 03:21:23;;;;;;;14.52;9.48;;;8.20;99.90;;;;;;5098608;28;20199;-78
2022/11/09 03:23:49;;;;;;;11.80;9.40;;;8.20;99.90;;;;;;5098349;28;20267;-78
2022/11/09 03:26:15;;;;;;;10.13;9.13;;;8.20;99.90;;;;;;5098551;28;20239;-78
2022/11/09 03:28:41;;;;;;;10.38;8.70;;;8.20;99.90;;;;;;5099186;28;20225;-78
2022/11/09 03:31:08;;;;;;;10.27;8.43;;;8.20;99.90;;;;;;5116456;28;20214;-78
2022/11/09 03:33:33;;;;;;;9.82;8.77;;;8.30;99.90;;;;;;5116903;28;20182;-78
2022/11/09 03:35:59;;;;;;;11.98;8.35;;;8.30;99.90;;;;;;5098130;28;20287;-78
2022/11/09 03:38:25;;;;;;;8.73;7.82;;;8.30;99.90;;;;;;5098439;28;20172;-78
2022/11/09 03:40:50;;;;;;;9.50;7.93;;;8.40;99.90;;;;;;5098472;28;20208;-78
2022/11/09 03:43:16;;;;;;;9.60;8.48;;;8.40;99.90;;;;;;5116240;28;20207;-78
2022/11/09 03:45:42;;;;;;;8.95;7.72;;;8.40;99.90;;;;;;5098997;28;20191;-78
2022/11/09 03:48:07;;;;;;;9.77;8.18;;;8.40;99.90;;;;;;5099116;28;20176;-78
2022/11/09 03:50:34;;;;;;;9.60;8.57;;;8.50;99.90;;;;;;5098625;28;20215;-78
2022/11/09 03:53:00;;;;;;;11.40;8.77;;;8.40;99.90;;;;;;5097981;28;20723;-78
2022/11/09 03:55:34;;;;;;;9.27;8.05;;;8.40;99.90;;;;;;5097699;28;20211;-78
2022/11/09 03:57:59;;;;;;;8.25;7.53;;;8.40;99.90;;;;;;5098432;28;20176;-78
2022/11/09 04:00:25;;;;;;;8.40;7.05;;;8.50;99.90;;;;;;5098401;28;20207;-78
2022/11/09 04:02:51;;;;;;;8.20;7.40;;;8.50;99.90;;;;;;5097563;28;20206;-78
2022/11/09 04:05:16;;;;;;;8.57;7.72;;;8.50;99.90;;;;;;5115691;28;20196;-78
2022/11/09 04:07:51;;;;;;;8.73;7.30;;;8.60;99.90;;;;;;5097368;28;20168;-78
2022/11/09 04:10:17;;;;;;;9.48;7.60;;;8.60;99.90;;;;;;5116177;28;20158;-78
2022/11/09 04:12:43;;;;;;;10.80;7.40;;;8.70;99.90;;;;;;5097611;28;20188;-78
2022/11/09 04:15:09;;;;;;;9.90;7.38;;;8.70;99.90;;;;;;5097316;28;20199;-78
2022/11/09 04:17:35;;;;;;;7.70;6.90;;;8.70;99.90;;;;;;5097377;28;20168;-78
2022/11/09 04:20:00;;;;;;;9.02;7.65;;;8.70;99.90;;;;;;5097279;28;20183;-78
2022/11/09 04:22:26;;;;;;;8.00;7.22;;;8.70;99.90;;;;;;5096891;28;20275;-78
2022/11/09 04:24:52;;;;;;;9.70;7.78;;;8.70;99.90;;;;;;5096781;28;20224;-78
2022/11/09 04:27:17;;;;;;;8.25;7.22;;;8.70;99.90;;;;;;5097241;28;20263;-78
2022/11/09 04:29:43;;;;;;;8.85;7.30;;;8.60;99.90;;;;;;5097212;28;20646;-78
2022/11/09 04:32:08;;;;;;;10.40;7.35;;;8.60;99.90;;;;;;5096821;28;20197;-78
2022/11/09 04:34:34;;;;;;;9.40;7.35;;;8.70;99.90;;;;;;5114947;28;20188;-78
2022/11/09 04:36:59;;;;;;;8.10;7.00;;;8.70;99.90;;;;;;5097667;28;20203;-78
2022/11/09 04:39:25;;;;;;;8.77;7.65;;;8.80;99.90;;;;;;5096764;28;20544;-78
2022/11/09 04:41:50;;;;;;;9.10;8.02;;;8.80;99.90;;;;;;5097021;28;20301;-78
2022/11/09 04:44:16;;;;;;;8.35;7.50;;;8.80;99.90;;;;;;5097701;28;20183;-78
2022/11/09 04:46:42;;;;;;;10.40;7.28;;;8.90;99.90;;;;;;5096863;28;20192;-78
2022/11/09 04:49:07;;;;;;;10.73;8.30;;;8.90;99.90;;;;;;5097649;28;20601;-78
2022/11/09 04:51:33;;;;;;;9.20;7.15;;;9.00;99.90;;;;;;5097365;28;20698;-78
2022/11/09 04:53:58;;;;;;;12.20;10.35;;;9.00;99.90;;;;;;5096317;28;20261;-78
2022/11/09 04:56:24;;;;;;;7.95;7.15;;;9.10;99.90;;;;;;5096296;28;20287;-78
2022/11/09 04:58:49;;;;;;;8.38;7.47;;;9.10;99.90;;;;;;5096534;28;20214;-78
2022/11/09 05:01:15;;;;;;;7.57;6.78;;;9.10;99.90;;;;;;5096550;28;20204;-78
2022/11/09 05:03:41;;;;;;;7.80;6.97;;;9.10;99.90;;;;;;5096862;28;20263;-78
2022/11/09 05:08:52;;;;;;;8.77;7.32;;;9.10;99.90;;;;;;5114983;28;20171;-78
2022/11/09 05:11:18;;;;;;;8.80;7.63;;;9.10;99.90;;;;;;5096053;28;20198;-78
2022/11/09 05:13:44;;;;;;;9.10;7.70;;;9.10;99.90;;;;;;5095530;28;20232;-78
2022/11/09 05:16:09;;;;;;;8.57;7.72;;;9.10;99.90;;;;;;5096407;28;20227;-78
2022/11/09 05:18:35;;;;;;;8.45;7.55;;;9.00;99.90;;;;;;5096344;28;20218;-78
2022/11/09 05:21:01;;;;;;;8.35;7.50;;;9.00;99.90;;;;;;5095839;28;20200;-78
2022/11/09 05:26:49;;;;;;;9.93;9.05;;;8.90;99.90;;;;;;5114451;28;20198;-78
2022/11/09 05:29:15;;;;;;;12.15;9.40;;;8.90;99.90;;;;;;5095862;28;20167;-78
2022/11/09 05:31:41;;;;;;;9.82;8.38;;;8.90;99.90;;;;;;5096013;28;20172;-78
2022/11/09 05:34:11;;;;;;;9.55;8.75;;;8.90;99.90;;;;;;5114200;28;20172;-78
2022/11/09 05:36:36;;;;;;;9.20;8.40;;;8.90;99.90;;;;;;5096554;28;20235;-78
2022/11/09 05:39:02;;;;;;;9.75;8.63;;;8.90;99.90;;;;;;5095772;28;20248;-78
2022/11/09 05:41:27;;;;;;;9.20;8.38;;;8.90;99.90;;;;;;5114151;28;20294;-78
2022/11/09 05:43:53;;;;;;;10.32;9.35;;;8.90;99.90;;;;;;5114067;28;20186;-78
2022/11/09 05:46:19;;;;;;;10.30;9.30;;;8.90;99.90;;;;;;5113884;28;20215;-78
2022/11/09 05:48:45;;;;;;;10.73;8.90;;;8.90;99.90;;;;;;5095862;28;20601;-78
2022/11/09 05:51:12;;;;;;;10.90;9.80;;;8.90;99.90;;;;;;5096097;28;20263;-78
2022/11/09 05:54:45;;;;;;;10.70;9.60;;;8.90;99.90;;;;;;5095849;28;20650;-78
2022/11/09 05:57:10;;;;;;;10.55;9.45;;;8.90;99.90;;;;;;5096940;28;20172;-78
2022/11/09 05:59:36;;;;;;;10.55;9.45;;;8.90;99.90;;;;;;5095769;28;20190;-79
2022/11/09 06:02:02;;;;;;;10.55;9.45;;;8.90;99.90;;;;;;5095925;28;20211;-78
2022/11/09 06:04:27;;;;;;;11.20;9.15;;;9.00;99.90;;;;;;5095797;28;20169;-78
2022/11/09 06:06:53;;;;;;;10.60;9.50;;;9.10;99.90;;;;;;5096036;28;20528;-79
2022/11/09 06:09:18;;;;;;;10.35;9.30;;;9.20;99.90;;;;;;5095675;28;20176;-81
2022/11/09 06:11:44;;;;;;;12.45;8.90;;;9.30;99.90;;;;;;5095357;28;20196;-77
2022/11/09 06:14:09;;;;;;;11.23;9.32;;;9.30;99.90;;;;;;5095402;28;20232;-78
2022/11/09 06:16:35;;;;;;;13.25;10.18;;;9.30;99.90;;;;;;5095331;28;20247;-78
2022/11/09 06:19:01;;;;;;;12.15;10.25;;;9.40;99.90;;;;;;5095436;28;20204;-78
2022/11/09 06:21:26;;;;;;;10.50;9.50;;;9.40;99.90;;;;;;5095476;28;20203;-78
2022/11/09 06:23:52;;;;;;;11.00;9.88;;;9.40;99.90;;;;;;5095896;28;20187;-78
2022/11/09 06:26:17;;;;;;;11.43;10.32;;;9.50;99.90;;;;;;5099116;28;20184;-78
2022/11/09 06:28:43;;;;;;;10.65;9.45;;;9.40;99.90;;;;;;5099605;28;20176;-83
2022/11/09 06:31:12;;;;;;;12.13;10.73;;;9.50;99.90;;;;;;5099430;28;20187;-78
2022/11/09 06:33:38;;;;;;;11.75;10.55;;;9.60;99.90;;;;;;5098990;28;20267;-78
2022/11/09 06:36:04;;;;;;;14.07;10.77;;;9.60;99.90;;;;;;5098972;28;20220;-78
2022/11/09 06:38:30;;;;;;;13.63;12.32;;;9.60;99.90;;;;;;5099021;28;20176;-78
2022/11/09 06:40:57;;;;;;;12.75;11.27;;;9.60;99.90;;;;;;5099666;28;20249;-78
2022/11/09 06:43:23;;;;;;;12.20;10.90;;;9.60;99.90;;;;;;5098896;28;20172;-78
2022/11/09 06:46:20;;;;;;;14.57;11.63;;;9.60;99.90;;;;;;5098825;28;20731;-78
2022/11/09 06:48:45;;;;;;;13.65;11.73;;;9.70;99.90;;;;;;5117485;28;20161;-78
2022/11/09 06:51:11;;;;;;;14.02;12.65;;;9.70;99.90;;;;;;5098779;28;20195;-78
2022/11/09 06:53:39;;;;;;;14.80;13.40;;;9.70;99.90;;;;;;5098756;28;20184;-78
2022/11/09 06:56:05;;;;;;;16.25;13.57;;;9.70;99.90;;;;;;5098426;28;20249;-78
2022/11/09 06:58:31;;;;;;;15.00;13.40;;;9.80;99.90;;;;;;5116829;28;20597;-78
2022/11/09 07:00:57;;;;;;;15.30;13.80;;;9.80;99.90;;;;;;5098292;28;20218;-78
2022/11/09 07:03:23;;;;;;;17.02;14.80;;;9.80;99.90;;;;;;5098406;28;20547;-78
2022/11/09 07:05:51;;;;;;;15.85;14.35;;;9.90;99.90;;;;;;5098602;28;20188;-78
2022/11/09 07:08:17;;;;;;;15.60;14.00;;;9.80;99.90;;;;;;5115992;28;20334;-77
2022/11/09 07:10:44;;;;;;;16.23;14.57;;;9.90;99.90;;;;;;5098957;28;20251;-78
2022/11/09 07:13:11;;;;;;;15.35;13.85;;;9.90;99.90;;;;;;5116735;28;20192;-78
2022/11/09 07:15:38;;;;;;;15.75;14.23;;;9.90;99.90;;;;;;5098675;28;20200;-78
2022/11/09 07:18:06;;;;;;;17.02;14.85;;;10.00;99.90;;;;;;5116483;28;20175;-85
2022/11/09 07:20:32;;;;;;;15.93;14.43;;;10.00;99.90;;;;;;5098063;28;20204;-78
2022/11/09 07:22:57;;;;;;;15.98;14.40;;;10.10;99.90;;;;;;5098121;28;20665;-78
2022/11/09 07:25:26;;;;;;;15.30;13.85;;;10.10;99.90;;;;;;5132149;27;20199;-78
2022/11/09 07:27:52;;;;;;;17.45;13.98;;;10.10;99.90;;;;;;5111645;27;20283;-78
2022/11/09 07:30:17;;;;;;;14.60;13.20;;;10.10;99.90;;;;;;5118543;27;20610;-78
2022/11/09 07:32:43;;;;;;;14.23;12.73;;;10.10;99.90;;;;;;5118789;27;20213;-78
2022/11/09 07:35:08;;;;;;;13.90;12.43;;;10.10;99.90;;;;;;5118853;27;20188;-78
2022/11/09 07:37:35;;;;;;;14.25;12.85;;;10.20;99.90;;;;;;5109860;28;20192;-78
2022/11/09 07:40:01;;;;;;;14.57;12.93;;;10.20;99.90;;;;;;5116079;28;20173;-78
2022/11/09 07:42:26;;;;;;;14.50;12.07;;;10.20;99.90;;;;;;5115578;28;20265;-78
2022/11/09 07:44:52;;;;;;;13.18;11.45;;;10.20;99.90;;;;;;5114842;28;20242;-78
2022/11/09 07:47:19;;;;;;;13.35;11.93;;;10.30;99.90;;;;;;5114490;27;20658;-78
2022/11/09 07:49:45;;;;;;;13.60;11.45;;;10.40;99.90;;;;;;5097986;28;20180;-78
2022/11/09 07:52:11;;;;;;;12.40;11.13;;;10.40;99.90;;;;;;5097362;28;20180;-78
2022/11/09 07:54:38;;;;;;;12.55;11.27;;;10.40;99.90;;;;;;5097560;28;20176;-78
2022/11/09 07:57:04;;;;;;;12.68;11.18;;;10.40;99.90;;;;;;5103090;27;20187;-78
2022/11/09 07:59:30;;;;;;;11.05;9.98;;;10.40;99.90;;;;;;5117855;27;20179;-78
2022/11/09 08:01:56;;;;;;;12.18;9.95;;;10.40;99.90;;;;;;5131143;27;20207;-78
2022/11/09 08:04:22;;;;;;;11.85;10.70;;;10.40;99.90;;;;;;5115128;28;20164;-78
2022/11/09 08:06:50;;;;;;;11.60;10.27;;;10.40;99.90;;;;;;5115190;28;20638;-78
2022/11/09 08:09:15;;;;;;;11.32;10.23;;;10.50;99.90;;;;;;5096877;28;20168;-78
2022/11/09 08:11:41;;;;;;;11.65;10.43;;;10.50;99.90;;;;;;5116742;27;20227;-78
2022/11/09 08:14:06;;;;;;;11.82;10.70;;;10.50;99.90;;;;;;5117350;27;20717;-78
2022/11/09 08:16:32;;;;;;;10.57;9.57;;;10.60;99.90;;;;;;5116178;27;20279;-78
2022/11/09 08:18:57;;;;;;;11.20;10.10;;;10.60;99.90;;;;;;5113791;28;20646;-78
2022/11/09 08:21:23;;;;;;;11.13;10.13;;;10.50;99.90;;;;;;5113909;28;20204;-78
2022/11/09 08:23:49;;;;;;;12.40;10.93;;;10.60;99.90;;;;;;5134763;27;20179;-78
2022/11/09 08:26:15;;;;;;;10.63;9.55;;;10.60;99.90;;;;;;5117014;27;20196;-78
2022/11/09 08:28:41;;;;;;;11.93;9.85;;;10.50;99.90;;;;;;5116743;27;20219;-78
2022/11/09 08:31:07;;;;;;;10.27;9.38;;;10.60;99.90;;;;;;5117065;27;20184;-78
2022/11/09 08:33:36;;;;;;;9.68;8.77;;;10.60;99.90;;;;;;5116769;27;20281;-78
2022/11/09 08:36:11;;;;;;;10.05;8.80;;;10.70;99.90;;;;;;5117112;27;20539;-84
2022/11/09 08:38:37;;;;;;;11.73;9.63;;;10.80;99.90;;;;;;5116654;27;20587;-78
2022/11/09 08:41:06;;;;;;;13.05;9.15;;;10.80;99.90;;;;;;5116666;27;20203;-78
2022/11/09 08:43:32;;;;;;;10.00;8.40;;;10.90;99.90;;;;;;5107027;27;20175;-78
2022/11/09 08:45:57;;;;;;;10.10;9.05;;;10.90;99.90;;;;;;5096841;27;20196;-78
2022/11/09 08:48:24;;;;;;;10.05;9.05;;;10.90;99.90;;;;;;5100544;28;20244;-78
2022/11/09 08:50:54;;;;;;;9.80;8.80;;;10.90;99.90;;;;;;5114403;27;20172;-78
2022/11/09 08:53:21;;;;;;;9.20;8.32;;;10.90;99.90;;;;;;5116434;27;20188;-78
2022/11/09 08:55:46;;;;;;;10.10;9.10;;;11.00;99.90;;;;;;5116736;27;20290;-78
2022/11/09 08:58:12;;;;;;;10.75;8.50;;;11.00;99.90;;;;;;5116551;27;20267;-78
2022/11/09 09:00:37;;;;;;;10.35;8.65;;;11.00;99.90;;;;;;5116326;27;20214;-78
2022/11/09 09:03:04;;;;;;;8.80;8.00;;;11.10;99.90;;;;;;5112568;28;20284;-78
2022/11/09 09:05:31;;;;;;;9.48;8.52;;;11.20;99.90;;;;;;5107600;27;20199;-78
2022/11/09 09:07:58;;;;;;;8.98;8.18;;;11.30;99.90;;;;;;5107213;28;20172;-78
2022/11/09 09:10:24;;;;;;;10.20;7.35;;;11.40;99.90;;;;;;5097553;27;20180;-78
2022/11/09 09:12:50;;;;;;;7.43;6.80;;;11.60;99.90;;;;;;5115843;27;20283;-78
2022/11/09 09:15:15;;;;;;;7.22;6.53;;;11.60;99.90;;;;;;5125244;27;20200;-78
2022/11/09 09:17:41;;;;;;;6.75;6.15;;;11.80;99.90;;;;;;5113196;28;20164;-78
2022/11/09 09:20:07;;;;;;;7.88;6.38;;;11.80;99.90;;;;;;5112788;28;20172;-78
2022/11/09 09:22:33;;;;;;;6.40;5.80;;;11.90;99.90;;;;;;5095770;28;20207;-78
2022/11/09 09:24:59;;;;;;;6.78;6.18;;;11.90;99.90;;;;;;5095028;28;20200;-78
2022/11/09 09:27:26;;;;;;;6.18;5.72;;;12.10;99.90;;;;;;5095822;28;20172;-78
2022/11/09 09:29:51;;;;;;;6.53;6.00;;;12.10;99.90;;;;;;5095671;28;20217;-78
2022/11/09 09:32:18;;;;;;;7.93;6.38;;;12.30;99.90;;;;;;5112814;28;20263;-78
2022/11/09 09:34:44;;;;;;;6.05;5.45;;;12.40;99.90;;;;;;5095292;28;20195;-77
2022/11/09 09:37:09;;;;;;;6.25;5.75;;;12.50;99.90;;;;;;5113884;28;20198;-78
2022/11/09 09:39:35;;;;;;;6.90;6.30;;;12.50;99.90;;;;;;5117755;28;20187;-77
2022/11/09 09:42:05;;;;;;;6.35;5.75;;;12.50;99.90;;;;;;5120420;28;20211;-78
2022/11/09 09:44:48;;;;;;;11.48;10.55;;;12.40;99.90;;;;;;5117217;28;20168;-77
2022/11/09 09:47:18;;;;;;;11.35;10.45;;;12.50;99.90;;;;;;5137127;28;20167;-78
2022/11/09 09:50:19;;;;;;;10.98;10.07;;;12.60;99.90;;;;;;5097332;28;20164;-77
2022/11/09 09:53:03;;;;;;;5.63;5.07;;;12.70;99.90;;;;;;5075176;28;20194;-77
2022/11/09 09:55:38;;;;;;;9.18;7.25;;;12.90;99.90;;;;;;5097660;28;20200;-77
2022/11/09 09:58:22;;;;;;;5.63;5.13;;;13.10;99.90;;;;;;5104115;28;20178;-77
2022/11/09 10:00:55;;;;;;;5.68;5.28;;;13.00;99.90;;;;;;5125105;27;20282;-77
2022/11/09 10:03:21;;;;;;;5.60;4.78;;;13.00;99.90;;;;;;5130404;27;20164;-77
2022/11/09 10:06:19;;;;;;;7.78;7.15;;;13.10;99.90;;;;;;5117415;28;20203;-77
2022/11/09 10:08:59;;;;;;;6.72;6.22;;;13.20;99.90;;;;;;5099405;28;20165;-77
2022/11/09 10:11:54;;;;;;;5.97;5.47;;;13.30;99.90;;;;;;5099770;28;20557;-76
2022/11/09 10:14:46;;;;;;;6.57;5.97;;;13.50;99.90;;;;;;5103256;27;20175;-77
2022/11/09 10:17:20;;;;;;;7.18;5.30;;;13.50;99.90;;;;;;5077918;27;20286;-76
2022/11/09 10:20:10;;;;;;;5.07;4.57;;;13.50;99.90;;;;;;5137822;27;20163;-77
2022/11/09 10:22:45;;;;;;;4.97;4.38;;;13.40;99.90;;;;;;5113879;28;20204;-77
2022/11/09 10:25:24;;;;;;;5.55;5.07;;;13.30;99.90;;;;;;5099014;28;20233;-77
2022/11/09 10:27:57;;;;;;;5.25;4.68;;;13.20;99.90;;;;;;5114598;27;20212;-77
2022/11/09 10:30:24;;;;;;;5.43;4.93;;;13.30;99.90;;;;;;5119352;27;20221;-77
2022/11/09 10:33:09;;;;;;;7.40;6.65;;;13.30;99.90;;;;;;5134808;27;20237;-77
2022/11/09 10:35:43;;;;;;;19.23;15.68;;;13.30;99.90;;;;;;5098496;28;20245;-77
2022/11/09 10:38:24;;;;;;;16.25;14.65;;;13.30;99.90;;;;;;5099171;27;20274;-77
2022/11/09 10:40:59;;;;;;;14.40;12.85;;;13.30;99.90;;;;;;5119097;27;20254;-77
2022/11/09 10:43:24;;;;;;;6.50;5.75;;;13.30;99.90;;;;;;5133900;27;20167;-76
2022/11/09 10:46:20;;;;;;;4.60;4.20;;;13.20;99.90;;;;;;5118965;27;20194;-77
2022/11/09 10:48:46;;;;;;;5.70;3.83;;;13.30;99.90;;;;;;5077850;28;20188;-77
2022/11/09 10:51:30;;;;;;;3.83;3.53;;;13.40;99.90;;;;;;5107355;27;20570;-77
2022/11/09 10:54:22;;;;;;;4.20;3.75;;;13.50;99.90;;;;;;5107353;28;20271;-77
2022/11/09 10:57:01;;;;;;;3.38;3.08;;;13.50;99.90;;;;;;5098339;28;20218;-77
2022/11/09 10:59:48;;;;;;;3.80;3.35;;;13.50;99.90;;;;;;5103268;28;20183;-77
2022/11/09 11:02:25;;;;;;;5.38;4.00;;;13.60;99.90;;;;;;5098820;28;20204;-77
2022/11/09 11:05:17;;;;;;;4.68;4.18;;;13.60;99.90;;;;;;5116480;27;20203;-77
2022/11/09 11:07:44;;;;;;;5.22;4.72;;;13.50;99.90;;;;;;5095583;28;20180;-78
2022/11/09 11:10:15;;;;;;;5.28;4.03;;;13.60;99.90;;;;;;5116213;28;20172;-77
2022/11/09 11:12:50;;;;;;;3.75;3.42;;;13.70;99.90;;;;;;5122373;27;20180;-79
2022/11/09 11:15:23;;;;;;;5.28;4.00;;;13.90;99.90;;;;;;5098008;28;20218;-77
2022/11/09 11:17:49;;;;;;;5.75;3.08;;;14.00;99.90;;;;;;5098811;28;20187;-77
2022/11/09 11:20:25;;;;;;;5.05;4.28;;;14.00;99.90;;;;;;5118359;27;20180;-77
2022/11/09 11:23:25;;;;;;;4.80;3.20;;;14.00;99.90;;;;;;5136455;27;20190;-77
2022/11/09 11:25:57;;;;;;;3.45;2.60;;;14.10;99.90;;;;;;5117689;27;20211;-77
2022/11/09 11:28:30;;;;;;;2.63;2.42;;;14.20;99.90;;;;;;5117932;27;20175;-77
2022/11/09 11:30:56;;;;;;;2.70;2.50;;;14.30;99.90;;;;;;5118827;27;20163;-77
2022/11/09 11:33:22;;;;;;;3.80;2.30;;;14.30;99.90;;;;;;5113014;28;20236;-77
2022/11/09 11:36:22;;;;;;;2.67;2.47;;;14.30;99.90;;;;;;5115988;28;20212;-77
2022/11/09 11:38:56;;;;;;;5.90;2.60;;;14.30;99.90;;;;;;5105661;27;20187;-77
2022/11/09 11:41:44;;;;;;;4.85;2.20;;;14.20;99.90;;;;;;5117953;27;20195;-77
2022/11/09 11:44:28;;;;;;;3.05;2.30;;;14.10;99.90;;;;;;5136233;27;20254;-77
2022/11/09 11:47:16;;;;;;;2.60;2.40;;;14.10;99.90;;;;;;5117903;27;20195;-77
2022/11/09 11:50:07;;;;;;;2.38;2.05;;;13.90;99.90;;;;;;5129518;27;20168;-77
2022/11/09 11:53:10;;;;;;;1.90;1.80;;;13.90;99.90;;;;;;5115813;28;20188;-77
2022/11/09 11:56:08;;;;;;;2.13;1.80;;;13.90;99.90;;;;;;5117221;27;20203;-77
2022/11/09 11:58:48;;;;;;;2.10;1.90;;;14.00;99.90;;;;;;5096975;28;20190;-77
2022/11/09 12:01:17;;;;;;;4.05;2.55;;;14.10;99.90;;;;;;5094952;28;20216;-78
2022/11/09 12:03:51;;;;;;;2.30;1.98;;;14.20;99.90;;;;;;5101430;27;20175;-78
2022/11/09 12:06:50;;;;;;;2.90;1.90;;;14.30;99.90;;;;;;5133904;27;20195;-78
2022/11/09 12:09:42;;;;;;;1.73;1.60;;;14.30;99.90;;;;;;5116923;27;20626;-77
2022/11/09 12:12:23;;;;;;;1.50;1.40;;;14.20;99.90;;;;;;5117574;27;20210;-77
2022/11/09 12:15:03;;;;;;;3.30;1.30;;;14.00;99.90;;;;;;5101514;28;20200;-77
2022/11/09 12:17:51;;;;;;;2.58;1.50;;;14.10;99.90;;;;;;5096757;28;20164;-77
2022/11/09 12:20:30;;;;;;;1.60;1.50;;;14.30;99.90;;;;;;5116147;27;20191;-77
2022/11/09 12:22:58;;;;;;;4.55;1.38;;;14.30;99.90;;;;;;5116965;27;20167;-77
2022/11/09 12:25:28;;;;;;;1.48;1.38;;;14.40;99.90;;;;;;5116962;27;20202;-77
2022/11/09 12:28:38;;;;;;;1.13;1.08;;;14.40;99.90;;;;;;5117184;27;20215;-77
2022/11/09 12:31:19;;;;;;;1.75;1.35;;;14.40;99.90;;;;;;5035318;28;20209;-78
2022/11/09 12:33:53;;;;;;;4.35;1.63;;;14.50;99.90;;;;;;5108398;27;20235;-77
2022/11/09 12:36:44;;;;;;;2.05;1.20;;;14.40;99.90;;;;;;5117745;27;20210;-77
2022/11/09 12:39:41;;;;;;;1.40;1.30;;;14.40;99.90;;;;;;5102044;27;20188;-77
2022/11/09 12:42:14;;;;;;;1.58;1.30;;;14.30;99.90;;;;;;5063964;27;20222;-77
2022/11/09 12:44:54;;;;;;;1.88;1.23;;;14.30;99.90;;;;;;5116894;27;20204;-77
2022/11/09 12:47:33;;;;;;;1.73;1.20;;;14.20;99.90;;;;;;5117236;27;20186;-77
2022/11/09 12:50:03;;;;;;;2.75;1.30;;;14.20;99.90;;;;;;5116489;27;20171;-77
2022/11/09 12:52:29;;;;;;;2.75;1.38;;;14.10;99.90;;;;;;5117465;27;20224;-77
2022/11/09 12:54:59;;;;;;;2.75;1.50;;;14.00;99.90;;;;;;5116714;27;20200;-77
2022/11/09 12:57:27;;;;;;;2.35;2.10;;;13.90;99.90;;;;;;5135179;27;20258;-77
2022/11/09 13:00:44;;;;;;;1.27;1.17;;;13.90;99.90;;;;;;5117110;27;20171;-76
2022/11/09 13:03:40;;;;;;;1.20;1.15;;;13.90;99.90;;;;;;5116591;27;20184;-77
2022/11/09 13:06:14;;;;;;;1.23;1.10;;;13.90;99.90;;;;;;5134598;27;20273;-77
2022/11/09 13:08:41;;;;;;;1.70;1.60;;;13.90;99.90;;;;;;5116954;27;20167;-77